CSCL Arctic Ocean — VROD9 — position and weather

sailwx.info

Track history (hours):
 
Tides and Currents Weather Stations Pressure Air Temp Water Temp Dewpoint Dewpoint Depression Visibility Wind Speed Wind Dir Waves Ship Positions

CSCL Arctic Ocean

Last reported at 2017-Nov-18 17:46 UTC. Time now 2017-Nov-22 05:40 UTC.
Position N 01°15' E 104°04'.

Length 400 m; draft 12.8 m.

Type: Ship (hazmat cat A). MMSI: 477967700.

Date/timePositionNaut miles runAvg speedWind from/ knotsBaromVisibWave heightAir tempDewpointWater temp
2017-Nov-18 17:46N 01°15' E 104°04'518.8
2017-Nov-18 17:29N 01°14' E 103°58'816.4
2017-Nov-18 17:00N 01°12' E 103°51'4 7.7
2017-Nov-18 16:30N 01°13' E 103°48'3 5.9
2017-Nov-18 16:01N 01°16' E 103°47'0 0.5
2017-Nov-18 15:30N 01°16' E 103°47'0 0.1
2017-Nov-18 15:00N 01°16' E 103°47'0 0.0
2017-Nov-18 14:30N 01°16' E 103°47'0 0.0
2017-Nov-18 14:00N 01°16' E 103°47'0 0.0
2017-Nov-18 13:30N 01°16' E 103°47'0 0.0
2017-Nov-18 13:00N 01°16' E 103°47'0 0.0
2017-Nov-18 12:30N 01°16' E 103°47'0 0.0
2017-Nov-18 12:00N 01°16' E 103°47'0 0.0
2017-Nov-18 11:30N 01°16' E 103°47'0 0.0
2017-Nov-18 10:57N 01°16' E 103°47'0 0.0
2017-Nov-18 10:30N 01°16' E 103°47'0 0.0
2017-Nov-18 10:00N 01°16' E 103°47'0 0.0
2017-Nov-18 09:23N 01°16' E 103°47'0 0.0
2017-Nov-18 08:59N 01°16' E 103°47'0 0.0
2017-Nov-18 08:29N 01°16' E 103°47'0 0.0
2017-Nov-18 07:59N 01°16' E 103°47'0 0.0
2017-Nov-18 07:29N 01°16' E 103°47'0 0.0
2017-Nov-18 06:59N 01°16' E 103°47'0 0.0
2017-Nov-18 06:29N 01°16' E 103°47'0 0.0
2017-Nov-18 05:56N 01°16' E 103°47'0 0.0
2017-Nov-18 05:23N 01°16' E 103°47'0 0.0
2017-Nov-18 04:56N 01°16' E 103°47'0 0.0
2017-Nov-18 04:26N 01°16' E 103°47'0 0.0
2017-Nov-18 03:59N 01°16' E 103°47'0 0.0
2017-Nov-18 03:29N 01°16' E 103°47'0 0.0
2017-Nov-18 02:59N 01°16' E 103°47'0 0.0
2017-Nov-18 02:29N 01°16' E 103°47'0 0.0
2017-Nov-18 01:59N 01°16' E 103°47'0 0.0
2017-Nov-18 01:29N 01°16' E 103°47'0 0.0
2017-Nov-18 00:59N 01°16' E 103°47'0 0.0
2017-Nov-18 00:29N 01°16' E 103°47'0 0.0
2017-Nov-17 23:59N 01°16' E 103°47'0 0.0
2017-Nov-17 23:30N 01°16' E 103°47'0 0.0
2017-Nov-17 23:00N 01°16' E 103°47'0 0.0
2017-Nov-17 22:30N 01°16' E 103°47'0 0.0
2017-Nov-17 22:01N 01°16' E 103°47'0 0.0
2017-Nov-17 21:31N 01°16' E 103°47'0 0.0
2017-Nov-17 21:01N 01°16' E 103°47'0 0.0
2017-Nov-17 20:31N 01°16' E 103°47'0 0.0
2017-Nov-17 20:00N 01°16' E 103°47'0 0.0
2017-Nov-17 19:30N 01°16' E 103°47'0 0.0
2017-Nov-17 19:01N 01°16' E 103°47'0 0.0
2017-Nov-17 18:31N 01°16' E 103°47'0 0.0
2017-Nov-17 18:00N 01°16' E 103°47'0 0.0
2017-Nov-17 17:30N 01°16' E 103°47'0 0.0
2017-Nov-17 17:01N 01°16' E 103°47'0 0.0
2017-Nov-17 16:31N 01°16' E 103°47'0 0.0
2017-Nov-17 16:01N 01°16' E 103°47'0 0.0
2017-Nov-17 15:30N 01°16' E 103°47'0 0.0
2017-Nov-17 15:01N 01°16' E 103°47'0 0.5
2017-Nov-17 14:30N 01°16' E 103°47'3 5.5
2017-Nov-17 14:01N 01°15' E 103°44'510.8
2017-Nov-17 13:31N 01°12' E 103°39'4 7.9
2017-Nov-17 13:00N 01°12' E 103°36'3 5.9
2017-Nov-17 12:30N 01°11' E 103°33'3 6.6
2017-Nov-17 12:01N 01°09' E 103°31'3 6.1
2017-Nov-17 11:30N 01°09' E 103°28'3 6.7
2017-Nov-17 11:01N 01°11' E 103°25'4 7.0
2017-Nov-17 10:30N 01°14' E 103°23'4 8.4
2017-Nov-17 10:00N 01°16' E 103°19'611.0
2017-Nov-17 09:28N 01°20' E 103°15'  
Track history (hours):
 
Tides and Currents Weather Stations Pressure Air Temp Water Temp Dewpoint Dewpoint Depression Visibility Wind Speed Wind Dir Waves Ship Positions

CSCL Arctic Ocean

Last reported at 2017-Nov-18 17:46 UTC. Time now 2017-Nov-22 05:40 UTC.
Position N 01°15' E 104°04'.

Length 400 m; draft 12.8 m.

Type: Ship (hazmat cat A). MMSI: 477967700.

Date/timePositionNaut miles runAvg speedWind from/ knotsBaromVisibWave heightAir tempDewpointWater temp
2017-Nov-18 17:46N 01°15' E 104°04'518.8
2017-Nov-18 17:29N 01°14' E 103°58'816.4
2017-Nov-18 17:00N 01°12' E 103°51'4 7.7
2017-Nov-18 16:30N 01°13' E 103°48'3 5.9
2017-Nov-18 16:01N 01°16' E 103°47'0 0.5
2017-Nov-18 15:30N 01°16' E 103°47'0 0.1
2017-Nov-18 15:00N 01°16' E 103°47'0 0.0
2017-Nov-18 14:30N 01°16' E 103°47'0 0.0
2017-Nov-18 14:00N 01°16' E 103°47'0 0.0
2017-Nov-18 13:30N 01°16' E 103°47'0 0.0
2017-Nov-18 13:00N 01°16' E 103°47'0 0.0
2017-Nov-18 12:30N 01°16' E 103°47'0 0.0
2017-Nov-18 12:00N 01°16' E 103°47'0 0.0
2017-Nov-18 11:30N 01°16' E 103°47'0 0.0
2017-Nov-18 10:57N 01°16' E 103°47'0 0.0
2017-Nov-18 10:30N 01°16' E 103°47'0 0.0
2017-Nov-18 10:00N 01°16' E 103°47'0 0.0
2017-Nov-18 09:23N 01°16' E 103°47'0 0.0
2017-Nov-18 08:59N 01°16' E 103°47'0 0.0
2017-Nov-18 08:29N 01°16' E 103°47'0 0.0
2017-Nov-18 07:59N 01°16' E 103°47'0 0.0
2017-Nov-18 07:29N 01°16' E 103°47'0 0.0
2017-Nov-18 06:59N 01°16' E 103°47'0 0.0
2017-Nov-18 06:29N 01°16' E 103°47'0 0.0
2017-Nov-18 05:56N 01°16' E 103°47'0 0.0
2017-Nov-18 05:23N 01°16' E 103°47'0 0.0
2017-Nov-18 04:56N 01°16' E 103°47'0 0.0
2017-Nov-18 04:26N 01°16' E 103°47'0 0.0
2017-Nov-18 03:59N 01°16' E 103°47'0 0.0
2017-Nov-18 03:29N 01°16' E 103°47'0 0.0
2017-Nov-18 02:59N 01°16' E 103°47'0 0.0
2017-Nov-18 02:29N 01°16' E 103°47'0 0.0
2017-Nov-18 01:59N 01°16' E 103°47'0 0.0
2017-Nov-18 01:29N 01°16' E 103°47'0 0.0
2017-Nov-18 00:59N 01°16' E 103°47'0 0.0
2017-Nov-18 00:29N 01°16' E 103°47'0 0.0
2017-Nov-17 23:59N 01°16' E 103°47'0 0.0
2017-Nov-17 23:30N 01°16' E 103°47'0 0.0
2017-Nov-17 23:00N 01°16' E 103°47'0 0.0
2017-Nov-17 22:30N 01°16' E 103°47'0 0.0
2017-Nov-17 22:01N 01°16' E 103°47'0 0.0
2017-Nov-17 21:31N 01°16' E 103°47'0 0.0
2017-Nov-17 21:01N 01°16' E 103°47'0 0.0
2017-Nov-17 20:31N 01°16' E 103°47'0 0.0
2017-Nov-17 20:00N 01°16' E 103°47'0 0.0
2017-Nov-17 19:30N 01°16' E 103°47'0 0.0
2017-Nov-17 19:01N 01°16' E 103°47'0 0.0
2017-Nov-17 18:31N 01°16' E 103°47'0 0.0
2017-Nov-17 18:00N 01°16' E 103°47'0 0.0
2017-Nov-17 17:30N 01°16' E 103°47'0 0.0
2017-Nov-17 17:01N 01°16' E 103°47'0 0.0
2017-Nov-17 16:31N 01°16' E 103°47'0 0.0
2017-Nov-17 16:01N 01°16' E 103°47'0 0.0
2017-Nov-17 15:30N 01°16' E 103°47'0 0.0
2017-Nov-17 15:01N 01°16' E 103°47'0 0.5
2017-Nov-17 14:30N 01°16' E 103°47'3 5.5
2017-Nov-17 14:01N 01°15' E 103°44'510.8
2017-Nov-17 13:31N 01°12' E 103°39'4 7.9
2017-Nov-17 13:00N 01°12' E 103°36'3 5.9
2017-Nov-17 12:30N 01°11' E 103°33'3 6.6
2017-Nov-17 12:01N 01°09' E 103°31'3 6.1
2017-Nov-17 11:30N 01°09' E 103°28'3 6.7
2017-Nov-17 11:01N 01°11' E 103°25'4 7.0
2017-Nov-17 10:30N 01°14' E 103°23'4 8.4
2017-Nov-17 10:00N 01°16' E 103°19'611.0
2017-Nov-17 09:28N 01°20' E 103°15'  

Dump ship's entire track history